sensor_id;sensor_type;location;lat;lon;timestamp;temperature;humidity
22950;DHT22;11641;51.018;4.474;2023-04-03T00:00:10;4.80;99.90
22950;DHT22;11641;51.018;4.474;2023-04-03T00:02:38;4.80;99.90
22950;DHT22;11641;51.018;4.474;2023-04-03T00:05:06;4.70;99.90
22950;DHT22;11641;51.018;4.474;2023-04-03T00:07:32;4.70;99.90
22950;DHT22;11641;51.018;4.474;2023-04-03T00:09:57;4.70;99.90
22950;DHT22;11641;51.018;4.474;2023-04-03T00:12:26;4.80;99.90
22950;DHT22;11641;51.018;4.474;2023-04-03T00:14:53;4.70;99.90
22950;DHT22;11641;51.018;4.474;2023-04-03T00:17:21;4.70;99.90
22950;DHT22;11641;51.018;4.474;2023-04-03T00:19:49;4.70;99.90
22950;DHT22;11641;51.018;4.474;2023-04-03T00:22:14;4.70;99.90
22950;DHT22;11641;51.018;4.474;2023-04-03T00:24:40;4.70;99.90
22950;DHT22;11641;51.018;4.474;2023-04-03T00:27:06;4.70;99.90
22950;DHT22;11641;51.018;4.474;2023-04-03T00:29:31;4.70;99.90
22950;DHT22;11641;51.018;4.474;2023-04-03T00:31:57;4.60;99.90
22950;DHT22;11641;51.018;4.474;2023-04-03T00:34:23;4.60;99.90
22950;DHT22;11641;51.018;4.474;2023-04-03T00:36:48;4.50;99.90
22950;DHT22;11641;51.018;4.474;2023-04-03T00:39:14;4.50;99.90
22950;DHT22;11641;51.018;4.474;2023-04-03T00:41:39;4.60;99.90
22950;DHT22;11641;51.018;4.474;2023-04-03T00:46:59;4.60;99.90
22950;DHT22;11641;51.018;4.474;2023-04-03T00:49:24;4.60;99.90
22950;DHT22;11641;51.018;4.474;2023-04-03T00:51:50;4.60;99.90
22950;DHT22;11641;51.018;4.474;2023-04-03T00:54:16;4.60;99.90
22950;DHT22;11641;51.018;4.474;2023-04-03T00:56:43;4.50;99.90
22950;DHT22;11641;51.018;4.474;2023-04-03T00:59:15;4.50;99.90
22950;DHT22;11641;51.018;4.474;2023-04-03T01:01:44;4.40;99.90
22950;DHT22;11641;51.018;4.474;2023-04-03T01:04:36;4.40;99.90
22950;DHT22;11641;51.018;4.474;2023-04-03T01:07:08;4.40;99.90
22950;DHT22;11641;51.018;4.474;2023-04-03T01:09:34;4.30;99.90
22950;DHT22;11641;51.018;4.474;2023-04-03T01:12:25;4.20;99.90
22950;DHT22;11641;51.018;4.474;2023-04-03T01:14:54;4.20;99.90
22950;DHT22;11641;51.018;4.474;2023-04-03T01:17:38;4.20;99.90
22950;DHT22;11641;51.018;4.474;2023-04-03T01:25:47;4.20;99.90
22950;DHT22;11641;51.018;4.474;2023-04-03T01:28:15;4.20;99.90
22950;DHT22;11641;51.018;4.474;2023-04-03T01:33:13;4.20;99.90
22950;DHT22;11641;51.018;4.474;2023-04-03T01:35:39;4.10;99.90
22950;DHT22;11641;51.018;4.474;2023-04-03T01:38:04;4.20;99.90
22950;DHT22;11641;51.018;4.474;2023-04-03T01:40:30;4.10;99.90
22950;DHT22;11641;51.018;4.474;2023-04-03T01:42:56;4.00;99.90
22950;DHT22;11641;51.018;4.474;2023-04-03T01:45:21;4.10;99.90
22950;DHT22;11641;51.018;4.474;2023-04-03T01:47:47;4.00;99.90
22950;DHT22;11641;51.018;4.474;2023-04-03T01:50:13;4.00;99.90
22950;DHT22;11641;51.018;4.474;2023-04-03T01:52:38;4.00;99.90
22950;DHT22;11641;51.018;4.474;2023-04-03T01:55:04;4.00;99.90
22950;DHT22;11641;51.018;4.474;2023-04-03T01:57:35;4.00;99.90
22950;DHT22;11641;51.018;4.474;2023-04-03T02:00:00;4.00;99.90
22950;DHT22;11641;51.018;4.474;2023-04-03T02:02:26;3.90;99.90
22950;DHT22;11641;51.018;4.474;2023-04-03T02:04:52;3.90;99.90
22950;DHT22;11641;51.018;4.474;2023-04-03T02:07:17;4.00;99.90
22950;DHT22;11641;51.018;4.474;2023-04-03T02:09:43;3.90;99.90
22950;DHT22;11641;51.018;4.474;2023-04-03T02:12:09;3.90;99.90
22950;DHT22;11641;51.018;4.474;2023-04-03T02:14:34;3.90;99.90
22950;DHT22;11641;51.018;4.474;2023-04-03T02:17:01;3.90;99.90
22950;DHT22;11641;51.018;4.474;2023-04-03T02:19:30;3.90;99.90
22950;DHT22;11641;51.018;4.474;2023-04-03T02:21:56;3.80;99.90
22950;DHT22;11641;51.018;4.474;2023-04-03T02:24:22;3.80;99.90
22950;DHT22;11641;51.018;4.474;2023-04-03T02:26:47;3.80;99.90
22950;DHT22;11641;51.018;4.474;2023-04-03T02:29:13;3.80;99.90
22950;DHT22;11641;51.018;4.474;2023-04-03T02:31:41;3.70;99.90
22950;DHT22;11641;51.018;4.474;2023-04-03T02:34:06;3.70;99.90
22950;DHT22;11641;51.018;4.474;2023-04-03T02:36:34;3.70;99.90
22950;DHT22;11641;51.018;4.474;2023-04-03T02:39:00;3.70;99.90
22950;DHT22;11641;51.018;4.474;2023-04-03T02:41:26;3.70;99.90
22950;DHT22;11641;51.018;4.474;2023-04-03T02:43:58;3.60;99.90
22950;DHT22;11641;51.018;4.474;2023-04-03T02:46:24;3.60;99.90
22950;DHT22;11641;51.018;4.474;2023-04-03T02:48:50;3.60;99.90
22950;DHT22;11641;51.018;4.474;2023-04-03T02:51:15;3.70;99.90
22950;DHT22;11641;51.018;4.474;2023-04-03T02:53:41;3.60;99.90
22950;DHT22;11641;51.018;4.474;2023-04-03T02:56:07;3.60;99.90
22950;DHT22;11641;51.018;4.474;2023-04-03T02:58:32;3.60;99.90
22950;DHT22;11641;51.018;4.474;2023-04-03T03:00:58;3.60;99.90
22950;DHT22;11641;51.018;4.474;2023-04-03T03:03:24;3.50;99.90
22950;DHT22;11641;51.018;4.474;2023-04-03T03:05:49;3.60;99.90
22950;DHT22;11641;51.018;4.474;2023-04-03T03:08:15;3.60;99.90
22950;DHT22;11641;51.018;4.474;2023-04-03T03:10:41;3.50;99.90
22950;DHT22;11641;51.018;4.474;2023-04-03T03:13:09;3.50;99.90
22950;DHT22;11641;51.018;4.474;2023-04-03T03:15:34;3.60;99.90
22950;DHT22;11641;51.018;4.474;2023-04-03T03:18:02;3.50;99.90
22950;DHT22;11641;51.018;4.474;2023-04-03T03:20:28;3.50;99.90
22950;DHT22;11641;51.018;4.474;2023-04-03T03:22:54;3.50;99.90
22950;DHT22;11641;51.018;4.474;2023-04-03T03:25:21;3.50;99.90
22950;DHT22;11641;51.018;4.474;2023-04-03T03:27:47;3.50;99.90
22950;DHT22;11641;51.018;4.474;2023-04-03T03:30:15;3.40;99.90
22950;DHT22;11641;51.018;4.474;2023-04-03T03:32:45;3.50;99.90
22950;DHT22;11641;51.018;4.474;2023-04-03T03:35:13;3.50;99.90
22950;DHT22;11641;51.018;4.474;2023-04-03T03:37:39;3.50;99.90
22950;DHT22;11641;51.018;4.474;2023-04-03T03:40:05;3.50;99.90
22950;DHT22;11641;51.018;4.474;2023-04-03T03:42:31;3.40;99.90
22950;DHT22;11641;51.018;4.474;2023-04-03T03:44:56;3.40;99.90
22950;DHT22;11641;51.018;4.474;2023-04-03T03:47:22;3.40;99.90
22950;DHT22;11641;51.018;4.474;2023-04-03T03:49:47;3.40;99.90
22950;DHT22;11641;51.018;4.474;2023-04-03T03:52:13;3.40;99.90
22950;DHT22;11641;51.018;4.474;2023-04-03T03:54:39;3.30;99.90
22950;DHT22;11641;51.018;4.474;2023-04-03T03:57:04;3.30;99.90
22950;DHT22;11641;51.018;4.474;2023-04-03T03:59:34;3.30;99.90
22950;DHT22;11641;51.018;4.474;2023-04-03T04:02:00;3.30;99.90
22950;DHT22;11641;51.018;4.474;2023-04-03T04:04:26;3.30;99.90
22950;DHT22;11641;51.018;4.474;2023-04-03T04:06:52;3.30;99.90
22950;DHT22;11641;51.018;4.474;2023-04-03T04:09:17;3.30;99.90
22950;DHT22;11641;51.018;4.474;2023-04-03T04:11:43;3.20;99.90
22950;DHT22;11641;51.018;4.474;2023-04-03T04:14:12;3.20;99.90
22950;DHT22;11641;51.018;4.474;2023-04-03T04:16:38;3.20;99.90
22950;DHT22;11641;51.018;4.474;2023-04-03T04:19:04;3.10;99.90
22950;DHT22;11641;51.018;4.474;2023-04-03T04:21:32;3.20;99.90
22950;DHT22;11641;51.018;4.474;2023-04-03T04:23:58;3.10;99.90
22950;DHT22;11641;51.018;4.474;2023-04-03T04:26:24;3.10;99.90
22950;DHT22;11641;51.018;4.474;2023-04-03T04:28:51;3.10;99.90
22950;DHT22;11641;51.018;4.474;2023-04-03T04:31:17;3.10;99.90
22950;DHT22;11641;51.018;4.474;2023-04-03T04:33:43;3.10;99.90
22950;DHT22;11641;51.018;4.474;2023-04-03T04:36:08;3.00;99.90
22950;DHT22;11641;51.018;4.474;2023-04-03T04:38:34;3.00;99.90
22950;DHT22;11641;51.018;4.474;2023-04-03T04:41:03;3.00;99.90
22950;DHT22;11641;51.018;4.474;2023-04-03T04:43:28;3.10;99.90
22950;DHT22;11641;51.018;4.474;2023-04-03T04:46:05;3.10;99.90
22950;DHT22;11641;51.018;4.474;2023-04-03T04:48:31;2.90;99.90
22950;DHT22;11641;51.018;4.474;2023-04-03T04:50:57;3.10;99.90
22950;DHT22;11641;51.018;4.474;2023-04-03T04:53:22;3.10;99.90
22950;DHT22;11641;51.018;4.474;2023-04-03T04:55:48;3.10;99.90
22950;DHT22;11641;51.018;4.474;2023-04-03T04:58:14;3.00;99.90
22950;DHT22;11641;51.018;4.474;2023-04-03T05:00:42;3.00;99.90
22950;DHT22;11641;51.018;4.474;2023-04-03T05:03:08;3.00;99.90
22950;DHT22;11641;51.018;4.474;2023-04-03T05:05:35;3.10;99.90
22950;DHT22;11641;51.018;4.474;2023-04-03T05:08:02;3.10;99.90
22950;DHT22;11641;51.018;4.474;2023-04-03T05:10:30;3.00;99.90
22950;DHT22;11641;51.018;4.474;2023-04-03T05:12:57;3.00;99.90
22950;DHT22;11641;51.018;4.474;2023-04-03T05:15:22;3.00;99.90
22950;DHT22;11641;51.018;4.474;2023-04-03T05:17:48;3.00;99.90
22950;DHT22;11641;51.018;4.474;2023-04-03T05:20:14;3.00;99.90
22950;DHT22;11641;51.018;4.474;2023-04-03T05:22:40;3.00;99.90
22950;DHT22;11641;51.018;4.474;2023-04-03T05:25:08;3.00;99.90
22950;DHT22;11641;51.018;4.474;2023-04-03T05:27:34;3.10;99.90
22950;DHT22;11641;51.018;4.474;2023-04-03T05:29:59;3.10;99.90
22950;DHT22;11641;51.018;4.474;2023-04-03T05:32:25;3.00;99.90
22950;DHT22;11641;51.018;4.474;2023-04-03T05:34:54;3.00;99.90
22950;DHT22;11641;51.018;4.474;2023-04-03T05:37:20;2.90;99.90
22950;DHT22;11641;51.018;4.474;2023-04-03T05:39:45;3.00;99.90
22950;DHT22;11641;51.018;4.474;2023-04-03T05:42:12;3.00;99.90
22950;DHT22;11641;51.018;4.474;2023-04-03T05:44:39;3.10;99.90
22950;DHT22;11641;51.018;4.474;2023-04-03T05:47:05;3.10;99.90
22950;DHT22;11641;51.018;4.474;2023-04-03T05:49:30;3.10;99.90
22950;DHT22;11641;51.018;4.474;2023-04-03T05:51:56;3.30;99.90
22950;DHT22;11641;51.018;4.474;2023-04-03T05:54:25;3.30;99.90
22950;DHT22;11641;51.018;4.474;2023-04-03T05:56:51;3.40;99.90
22950;DHT22;11641;51.018;4.474;2023-04-03T05:59:19;3.50;99.90
22950;DHT22;11641;51.018;4.474;2023-04-03T06:01:46;3.50;99.90
22950;DHT22;11641;51.018;4.474;2023-04-03T06:04:12;3.50;99.90
22950;DHT22;11641;51.018;4.474;2023-04-03T06:06:54;3.50;99.90
22950;DHT22;11641;51.018;4.474;2023-04-03T06:09:23;3.60;99.90
22950;DHT22;11641;51.018;4.474;2023-04-03T06:11:49;3.60;99.90
22950;DHT22;11641;51.018;4.474;2023-04-03T06:14:15;3.60;99.90
22950;DHT22;11641;51.018;4.474;2023-04-03T06:16:41;3.70;99.90
22950;DHT22;11641;51.018;4.474;2023-04-03T06:19:11;3.80;99.90
22950;DHT22;11641;51.018;4.474;2023-04-03T06:21:37;3.80;99.90
22950;DHT22;11641;51.018;4.474;2023-04-03T06:24:04;3.80;99.90
22950;DHT22;11641;51.018;4.474;2023-04-03T06:26:32;3.80;99.90
22950;DHT22;11641;51.018;4.474;2023-04-03T06:28:58;3.80;99.90
22950;DHT22;11641;51.018;4.474;2023-04-03T06:31:27;3.90;99.90
22950;DHT22;11641;51.018;4.474;2023-04-03T06:33:55;4.00;99.90
22950;DHT22;11641;51.018;4.474;2023-04-03T06:36:24;4.00;99.90
22950;DHT22;11641;51.018;4.474;2023-04-03T06:38:49;4.10;99.90
22950;DHT22;11641;51.018;4.474;2023-04-03T06:41:16;4.10;99.90
22950;DHT22;11641;51.018;4.474;2023-04-03T06:43:43;4.20;99.90
22950;DHT22;11641;51.018;4.474;2023-04-03T06:46:19;4.30;99.90
22950;DHT22;11641;51.018;4.474;2023-04-03T06:48:46;4.50;99.90
22950;DHT22;11641;51.018;4.474;2023-04-03T06:51:26;4.60;99.90
22950;DHT22;11641;51.018;4.474;2023-04-03T06:53:54;4.60;99.90
22950;DHT22;11641;51.018;4.474;2023-04-03T06:56:20;4.60;99.90
22950;DHT22;11641;51.018;4.474;2023-04-03T06:58:46;4.90;99.90
22950;DHT22;11641;51.018;4.474;2023-04-03T07:01:15;4.80;99.90
22950;DHT22;11641;51.018;4.474;2023-04-03T07:03:42;4.70;99.90
22950;DHT22;11641;51.018;4.474;2023-04-03T07:06:12;4.70;99.90
22950;DHT22;11641;51.018;4.474;2023-04-03T07:08:38;4.80;99.90
22950;DHT22;11641;51.018;4.474;2023-04-03T07:11:04;4.80;99.90
22950;DHT22;11641;51.018;4.474;2023-04-03T07:13:33;4.90;99.90
22950;DHT22;11641;51.018;4.474;2023-04-03T07:16:02;5.10;99.90
22950;DHT22;11641;51.018;4.474;2023-04-03T07:18:29;5.20;99.90
22950;DHT22;11641;51.018;4.474;2023-04-03T07:20:54;5.20;99.90
22950;DHT22;11641;51.018;4.474;2023-04-03T07:23:21;5.40;99.90
22950;DHT22;11641;51.018;4.474;2023-04-03T07:25:48;5.40;99.90
22950;DHT22;11641;51.018;4.474;2023-04-03T07:28:15;5.40;99.90
22950;DHT22;11641;51.018;4.474;2023-04-03T07:30:50;5.60;99.90
22950;DHT22;11641;51.018;4.474;2023-04-03T07:33:18;5.80;99.90
22950;DHT22;11641;51.018;4.474;2023-04-03T07:35:44;6.00;99.90
22950;DHT22;11641;51.018;4.474;2023-04-03T07:38:12;6.00;99.90
22950;DHT22;11641;51.018;4.474;2023-04-03T07:40:39;6.00;99.90
22950;DHT22;11641;51.018;4.474;2023-04-03T07:43:05;6.00;99.90
22950;DHT22;11641;51.018;4.474;2023-04-03T07:45:34;6.30;99.90
22950;DHT22;11641;51.018;4.474;2023-04-03T07:48:00;6.60;99.90
22950;DHT22;11641;51.018;4.474;2023-04-03T07:50:28;6.60;99.90
22950;DHT22;11641;51.018;4.474;2023-04-03T07:52:55;6.60;99.90
22950;DHT22;11641;51.018;4.474;2023-04-03T07:55:23;6.80;99.90
22950;DHT22;11641;51.018;4.474;2023-04-03T07:57:49;6.90;99.90
22950;DHT22;11641;51.018;4.474;2023-04-03T08:00:15;7.10;99.90
22950;DHT22;11641;51.018;4.474;2023-04-03T08:02:44;7.40;99.90
22950;DHT22;11641;51.018;4.474;2023-04-03T08:05:18;7.50;99.90
22950;DHT22;11641;51.018;4.474;2023-04-03T08:07:44;7.50;99.90
22950;DHT22;11641;51.018;4.474;2023-04-03T08:10:10;7.70;99.90
22950;DHT22;11641;51.018;4.474;2023-04-03T08:12:38;7.80;99.90
22950;DHT22;11641;51.018;4.474;2023-04-03T08:15:04;8.00;99.90
22950;DHT22;11641;51.018;4.474;2023-04-03T08:17:30;8.00;99.90
22950;DHT22;11641;51.018;4.474;2023-04-03T08:19:56;8.10;99.90
22950;DHT22;11641;51.018;4.474;2023-04-03T08:22:22;8.20;99.90
22950;DHT22;11641;51.018;4.474;2023-04-03T08:24:47;8.50;99.90
22950;DHT22;11641;51.018;4.474;2023-04-03T08:27:15;8.80;99.90
22950;DHT22;11641;51.018;4.474;2023-04-03T08:29:41;8.90;99.90
22950;DHT22;11641;51.018;4.474;2023-04-03T08:32:07;9.00;99.90
22950;DHT22;11641;51.018;4.474;2023-04-03T08:34:32;9.10;99.90
22950;DHT22;11641;51.018;4.474;2023-04-03T08:37:02;9.20;99.90
22950;DHT22;11641;51.018;4.474;2023-04-03T08:39:28;9.30;99.90
22950;DHT22;11641;51.018;4.474;2023-04-03T08:41:59;9.40;99.90
22950;DHT22;11641;51.018;4.474;2023-04-03T08:50:31;9.70;99.90
22950;DHT22;11641;51.018;4.474;2023-04-03T08:53:04;9.80;99.90
22950;DHT22;11641;51.018;4.474;2023-04-03T08:55:39;10.00;99.90
22950;DHT22;11641;51.018;4.474;2023-04-03T08:58:26;10.20;99.90
22950;DHT22;11641;51.018;4.474;2023-04-03T09:01:01;10.30;99.90
22950;DHT22;11641;51.018;4.474;2023-04-03T09:03:33;10.50;99.90
22950;DHT22;11641;51.018;4.474;2023-04-03T09:08:45;10.60;99.90
22950;DHT22;11641;51.018;4.474;2023-04-03T09:14:11;10.80;99.90
22950;DHT22;11641;51.018;4.474;2023-04-03T09:16:59;11.10;99.90
22950;DHT22;11641;51.018;4.474;2023-04-03T09:22:25;11.50;99.90
22950;DHT22;11641;51.018;4.474;2023-04-03T09:25:14;11.90;99.90
22950;DHT22;11641;51.018;4.474;2023-04-03T09:27:41;12.40;99.90
22950;DHT22;11641;51.018;4.474;2023-04-03T09:30:13;13.30;99.90
22950;DHT22;11641;51.018;4.474;2023-04-03T09:32:44;14.30;99.90
22950;DHT22;11641;51.018;4.474;2023-04-03T09:35:30;14.90;99.90
22950;DHT22;11641;51.018;4.474;2023-04-03T09:38:19;15.40;99.90
22950;DHT22;11641;51.018;4.474;2023-04-03T09:40:50;16.30;96.00
22950;DHT22;11641;51.018;4.474;2023-04-03T09:43:29;17.20;94.90
22950;DHT22;11641;51.018;4.474;2023-04-03T09:45:56;18.40;90.90
22950;DHT22;11641;51.018;4.474;2023-04-03T09:48:50;19.30;85.50
22950;DHT22;11641;51.018;4.474;2023-04-03T09:51:16;20.40;79.60
22950;DHT22;11641;51.018;4.474;2023-04-03T09:53:43;21.00;75.60
22950;DHT22;11641;51.018;4.474;2023-04-03T09:59:15;22.40;67.20
22950;DHT22;11641;51.018;4.474;2023-04-03T10:01:36;23.20;64.80
22950;DHT22;11641;51.018;4.474;2023-04-03T10:04:15;24.30;58.80
22950;DHT22;11641;51.018;4.474;2023-04-03T10:14:37;26.10;52.20
22950;DHT22;11641;51.018;4.474;2023-04-03T10:23:11;27.20;49.10
22950;DHT22;11641;51.018;4.474;2023-04-03T10:31:28;27.10;47.10
22950;DHT22;11641;51.018;4.474;2023-04-03T10:39:41;27.60;42.10
22950;DHT22;11641;51.018;4.474;2023-04-03T10:45:25;29.80;42.10
22950;DHT22;11641;51.018;4.474;2023-04-03T10:58:35;32.20;38.20
22950;DHT22;11641;51.018;4.474;2023-04-03T11:01:19;31.40;37.40
22950;DHT22;11641;51.018;4.474;2023-04-03T11:03:57;30.90;37.20
22950;DHT22;11641;51.018;4.474;2023-04-03T11:06:34;30.30;37.80
22950;DHT22;11641;51.018;4.474;2023-04-03T11:09:07;30.80;37.70
22950;DHT22;11641;51.018;4.474;2023-04-03T11:11:39;31.20;36.30
22950;DHT22;11641;51.018;4.474;2023-04-03T11:14:32;31.90;36.50
22950;DHT22;11641;51.018;4.474;2023-04-03T11:17:11;32.40;35.40
22950;DHT22;11641;51.018;4.474;2023-04-03T11:22:32;31.20;33.30
22950;DHT22;11641;51.018;4.474;2023-04-03T11:35:30;31.60;34.70
22950;DHT22;11641;51.018;4.474;2023-04-03T11:38:01;31.80;34.00
22950;DHT22;11641;51.018;4.474;2023-04-03T11:40:29;31.70;34.60
22950;DHT22;11641;51.018;4.474;2023-04-03T11:45:54;32.80;32.00
22950;DHT22;11641;51.018;4.474;2023-04-03T11:53:46;33.40;30.00
22950;DHT22;11641;51.018;4.474;2023-04-03T12:01:55;34.30;30.00
22950;DHT22;11641;51.018;4.474;2023-04-03T12:04:24;34.20;29.70
22950;DHT22;11641;51.018;4.474;2023-04-03T12:10:13;34.20;28.90
22950;DHT22;11641;51.018;4.474;2023-04-03T12:22:05;33.60;28.10
22950;DHT22;11641;51.018;4.474;2023-04-03T12:29:33;31.50;29.10
22950;DHT22;11641;51.018;4.474;2023-04-03T12:46:16;32.80;29.00
22950;DHT22;11641;51.018;4.474;2023-04-03T12:51:19;33.70;28.70
22950;DHT22;11641;51.018;4.474;2023-04-03T12:53:47;34.80;27.70
22950;DHT22;11641;51.018;4.474;2023-04-03T12:56:29;35.00;26.80
22950;DHT22;11641;51.018;4.474;2023-04-03T12:59:30;35.20;26.50
22950;DHT22;11641;51.018;4.474;2023-04-03T13:02:01;35.00;27.10
22950;DHT22;11641;51.018;4.474;2023-04-03T13:04:37;35.10;27.10
22950;DHT22;11641;51.018;4.474;2023-04-03T13:07:22;35.30;27.60
22950;DHT22;11641;51.018;4.474;2023-04-03T13:09:58;35.40;27.70
22950;DHT22;11641;51.018;4.474;2023-04-03T13:12:25;35.70;27.20
22950;DHT22;11641;51.018;4.474;2023-04-03T13:14:56;36.40;26.70
22950;DHT22;11641;51.018;4.474;2023-04-03T13:17:26;36.50;27.10
22950;DHT22;11641;51.018;4.474;2023-04-03T13:19:56;36.70;26.70
22950;DHT22;11641;51.018;4.474;2023-04-03T13:22:41;36.90;26.60
22950;DHT22;11641;51.018;4.474;2023-04-03T13:25:15;36.80;26.30
22950;DHT22;11641;51.018;4.474;2023-04-03T13:27:42;36.90;26.60
22950;DHT22;11641;51.018;4.474;2023-04-03T13:30:33;36.40;26.40
22950;DHT22;11641;51.018;4.474;2023-04-03T13:33:03;35.90;27.20
22950;DHT22;11641;51.018;4.474;2023-04-03T13:35:38;36.00;27.00
22950;DHT22;11641;51.018;4.474;2023-04-03T13:38:24;36.10;26.40
22950;DHT22;11641;51.018;4.474;2023-04-03T13:40:55;36.00;26.90
22950;DHT22;11641;51.018;4.474;2023-04-03T13:43:27;35.70;26.70
22950;DHT22;11641;51.018;4.474;2023-04-03T13:45:55;36.30;26.90
22950;DHT22;11641;51.018;4.474;2023-04-03T13:48:24;36.80;26.90
22950;DHT22;11641;51.018;4.474;2023-04-03T13:51:01;37.40;26.70
22950;DHT22;11641;51.018;4.474;2023-04-03T13:53:29;36.70;26.10
22950;DHT22;11641;51.018;4.474;2023-04-03T13:58:31;36.40;27.00
22950;DHT22;11641;51.018;4.474;2023-04-03T14:01:14;36.20;26.90
22950;DHT22;11641;51.018;4.474;2023-04-03T14:03:52;36.90;27.10
22950;DHT22;11641;51.018;4.474;2023-04-03T14:06:17;37.50;26.60
22950;DHT22;11641;51.018;4.474;2023-04-03T14:08:45;36.70;26.70
22950;DHT22;11641;51.018;4.474;2023-04-03T14:11:22;37.00;26.30
22950;DHT22;11641;51.018;4.474;2023-04-03T14:13:50;37.10;26.20
22950;DHT22;11641;51.018;4.474;2023-04-03T14:16:19;37.20;26.80
22950;DHT22;11641;51.018;4.474;2023-04-03T14:18:48;37.00;26.70
22950;DHT22;11641;51.018;4.474;2023-04-03T14:21:17;36.00;27.10
22950;DHT22;11641;51.018;4.474;2023-04-03T14:23:43;36.10;26.40
22950;DHT22;11641;51.018;4.474;2023-04-03T14:26:14;35.80;25.70
22950;DHT22;11641;51.018;4.474;2023-04-03T14:28:42;36.20;26.70
22950;DHT22;11641;51.018;4.474;2023-04-03T14:31:10;36.70;26.40
22950;DHT22;11641;51.018;4.474;2023-04-03T14:33:37;37.40;25.90
22950;DHT22;11641;51.018;4.474;2023-04-03T14:36:13;37.60;25.90
22950;DHT22;11641;51.018;4.474;2023-04-03T14:38:39;37.40;24.80
22950;DHT22;11641;51.018;4.474;2023-04-03T14:41:06;37.70;25.40
22950;DHT22;11641;51.018;4.474;2023-04-03T14:43:32;37.80;26.00
22950;DHT22;11641;51.018;4.474;2023-04-03T14:45:58;37.90;25.40
22950;DHT22;11641;51.018;4.474;2023-04-03T14:48:26;38.00;25.50
22950;DHT22;11641;51.018;4.474;2023-04-03T14:50:53;37.70;24.40
22950;DHT22;11641;51.018;4.474;2023-04-03T14:53:19;37.40;25.40
22950;DHT22;11641;51.018;4.474;2023-04-03T14:55:48;36.10;24.30
22950;DHT22;11641;51.018;4.474;2023-04-03T14:58:18;35.70;25.30
22950;DHT22;11641;51.018;4.474;2023-04-03T15:00:47;35.50;25.60
22950;DHT22;11641;51.018;4.474;2023-04-03T15:03:18;34.90;25.10
22950;DHT22;11641;51.018;4.474;2023-04-03T15:05:49;34.80;26.10
22950;DHT22;11641;51.018;4.474;2023-04-03T15:08:22;35.00;25.80
22950;DHT22;11641;51.018;4.474;2023-04-03T15:10:50;34.80;25.60
22950;DHT22;11641;51.018;4.474;2023-04-03T15:13:20;34.70;25.90
22950;DHT22;11641;51.018;4.474;2023-04-03T15:15:46;34.70;25.40
22950;DHT22;11641;51.018;4.474;2023-04-03T15:18:35;34.80;25.20
22950;DHT22;11641;51.018;4.474;2023-04-03T15:21:02;34.20;25.20
22950;DHT22;11641;51.018;4.474;2023-04-03T15:23:27;34.90;26.10
22950;DHT22;11641;51.018;4.474;2023-04-03T15:25:55;35.00;26.00
22950;DHT22;11641;51.018;4.474;2023-04-03T15:30:53;35.00;25.10
22950;DHT22;11641;51.018;4.474;2023-04-03T15:33:19;35.00;25.90
22950;DHT22;11641;51.018;4.474;2023-04-03T15:35:47;35.00;24.90
22950;DHT22;11641;51.018;4.474;2023-04-03T15:38:13;34.70;25.80
22950;DHT22;11641;51.018;4.474;2023-04-03T15:40:38;34.60;25.50
22950;DHT22;11641;51.018;4.474;2023-04-03T15:43:06;34.20;25.30
22950;DHT22;11641;51.018;4.474;2023-04-03T15:45:32;33.60;26.00
22950;DHT22;11641;51.018;4.474;2023-04-03T15:47:59;33.50;25.60
22950;DHT22;11641;51.018;4.474;2023-04-03T15:50:25;32.90;25.90
22950;DHT22;11641;51.018;4.474;2023-04-03T15:52:51;33.00;26.40
22950;DHT22;11641;51.018;4.474;2023-04-03T15:55:27;33.70;26.40
22950;DHT22;11641;51.018;4.474;2023-04-03T15:57:53;33.60;26.30
22950;DHT22;11641;51.018;4.474;2023-04-03T16:00:20;33.40;26.30
22950;DHT22;11641;51.018;4.474;2023-04-03T16:02:47;33.00;27.00
22950;DHT22;11641;51.018;4.474;2023-04-03T16:05:15;33.60;26.70
22950;DHT22;11641;51.018;4.474;2023-04-03T16:07:42;33.90;27.20
22950;DHT22;11641;51.018;4.474;2023-04-03T16:10:11;33.70;26.10
22950;DHT22;11641;51.018;4.474;2023-04-03T16:12:39;33.00;27.60
22950;DHT22;11641;51.018;4.474;2023-04-03T16:15:05;32.60;26.70
22950;DHT22;11641;51.018;4.474;2023-04-03T16:17:33;32.10;27.70
22950;DHT22;11641;51.018;4.474;2023-04-03T16:19:59;31.90;28.30
22950;DHT22;11641;51.018;4.474;2023-04-03T16:22:27;32.10;28.20
22950;DHT22;11641;51.018;4.474;2023-04-03T16:24:53;32.10;27.40
22950;DHT22;11641;51.018;4.474;2023-04-03T16:27:20;32.30;27.00
22950;DHT22;11641;51.018;4.474;2023-04-03T16:29:45;32.30;27.50
22950;DHT22;11641;51.018;4.474;2023-04-03T16:32:12;32.20;27.40
22950;DHT22;11641;51.018;4.474;2023-04-03T16:34:38;32.10;27.20
22950;DHT22;11641;51.018;4.474;2023-04-03T16:37:05;31.90;28.10
22950;DHT22;11641;51.018;4.474;2023-04-03T16:39:34;31.80;28.00
22950;DHT22;11641;51.018;4.474;2023-04-03T16:42:00;31.40;27.80
22950;DHT22;11641;51.018;4.474;2023-04-03T16:44:28;30.80;29.30
22950;DHT22;11641;51.018;4.474;2023-04-03T16:46:53;30.90;29.00
22950;DHT22;11641;51.018;4.474;2023-04-03T16:49:19;30.40;29.10
22950;DHT22;11641;51.018;4.474;2023-04-03T16:51:45;29.80;29.30
22950;DHT22;11641;51.018;4.474;2023-04-03T16:54:11;28.60;29.70
22950;DHT22;11641;51.018;4.474;2023-04-03T16:56:40;28.40;31.20
22950;DHT22;11641;51.018;4.474;2023-04-03T16:59:06;28.40;30.40
22950;DHT22;11641;51.018;4.474;2023-04-03T17:01:32;27.50;30.90
22950;DHT22;11641;51.018;4.474;2023-04-03T17:04:00;27.60;32.00
22950;DHT22;11641;51.018;4.474;2023-04-03T17:06:29;27.10;32.00
22950;DHT22;11641;51.018;4.474;2023-04-03T17:08:55;26.30;32.80
22950;DHT22;11641;51.018;4.474;2023-04-03T17:11:23;25.90;33.90
22950;DHT22;11641;51.018;4.474;2023-04-03T17:13:48;26.00;33.80
22950;DHT22;11641;51.018;4.474;2023-04-03T17:16:15;25.90;33.60
22950;DHT22;11641;51.018;4.474;2023-04-03T17:18:41;25.60;33.50
22950;DHT22;11641;51.018;4.474;2023-04-03T17:21:07;25.10;33.90
22950;DHT22;11641;51.018;4.474;2023-04-03T17:23:34;23.90;35.70
22950;DHT22;11641;51.018;4.474;2023-04-03T17:26:01;22.60;36.90
22950;DHT22;11641;51.018;4.474;2023-04-03T17:28:30;21.20;39.10
22950;DHT22;11641;51.018;4.474;2023-04-03T17:30:58;19.70;41.40
22950;DHT22;11641;51.018;4.474;2023-04-03T17:33:25;18.80;43.40
22950;DHT22;11641;51.018;4.474;2023-04-03T17:35:59;18.10;44.20
22950;DHT22;11641;51.018;4.474;2023-04-03T17:38:32;17.50;44.80
22950;DHT22;11641;51.018;4.474;2023-04-03T17:41:04;16.90;47.30
22950;DHT22;11641;51.018;4.474;2023-04-03T17:43:30;17.00;46.70
22950;DHT22;11641;51.018;4.474;2023-04-03T17:46:01;16.80;46.90
22950;DHT22;11641;51.018;4.474;2023-04-03T17:48:33;16.60;47.30
22950;DHT22;11641;51.018;4.474;2023-04-03T17:51:04;15.90;48.60
22950;DHT22;11641;51.018;4.474;2023-04-03T17:53:34;15.40;49.70
22950;DHT22;11641;51.018;4.474;2023-04-03T17:56:11;14.80;51.20
22950;DHT22;11641;51.018;4.474;2023-04-03T17:58:37;14.10;52.90
22950;DHT22;11641;51.018;4.474;2023-04-03T18:01:17;13.70;53.60
22950;DHT22;11641;51.018;4.474;2023-04-03T18:03:47;13.40;54.60